createdAt,value
2023-10-30T00:00:55.849Z,703.58
2023-10-30T00:03:24.474Z,736.55
2023-10-30T00:05:52.904Z,680.50
2023-10-30T00:08:21.364Z,701.22
2023-10-30T00:10:51.308Z,708.30
2023-10-30T00:13:19.663Z,711.25
2023-10-30T00:15:48.106Z,739.08
2023-10-30T00:18:16.591Z,693.10
2023-10-30T00:20:45.108Z,711.65
2023-10-30T00:23:13.644Z,752.83
2023-10-30T00:25:42.051Z,726.90
2023-10-30T00:28:11.902Z,739.80
2023-10-30T00:30:40.440Z,709.75
2023-10-30T00:33:08.955Z,711.95
2023-10-30T00:35:37.545Z,713.88
2023-10-30T00:38:05.983Z,691.97
2023-10-30T00:40:34.465Z,666.50
2023-10-30T00:43:03.183Z,694.30
2023-10-30T00:45:33.364Z,715.67
2023-10-30T00:48:02.595Z,685.80
2023-10-30T00:50:33.633Z,682.63
2023-10-30T00:53:02.668Z,651.15
2023-10-30T00:55:31.116Z,639.90
2023-10-30T00:57:59.608Z,583.97
2023-10-30T01:00:28.002Z,605.63
2023-10-30T01:02:58.233Z,598.70
2023-10-30T01:05:26.956Z,583.63
2023-10-30T01:07:55.327Z,610.92
2023-10-30T01:10:23.768Z,611.33
2023-10-30T01:12:52.151Z,627.33
2023-10-30T01:15:20.811Z,652.92
2023-10-30T01:17:49.353Z,678.45
2023-10-30T01:20:20.103Z,693.53
2023-10-30T01:22:48.501Z,686.97
2023-10-30T01:25:16.915Z,699.92
2023-10-30T01:27:46.150Z,707.17
2023-10-30T01:30:16.077Z,709.80
2023-10-30T01:32:44.716Z,709.50
2023-10-30T01:35:13.233Z,721.40
2023-10-30T01:37:44.150Z,779.50
2023-10-30T01:40:13.273Z,775.15
2023-10-30T01:42:41.833Z,795.28
2023-10-30T01:45:11.507Z,801.58
2023-10-30T01:47:40.125Z,775.08
2023-10-30T01:50:10.983Z,766.25
2023-10-30T01:52:40.035Z,740.97
2023-10-30T01:55:10.676Z,761.33
2023-10-30T01:57:39.243Z,767.83
2023-10-30T02:00:09.289Z,763.78
2023-10-30T02:02:38.296Z,763.72
2023-10-30T02:05:09.250Z,730.30
2023-10-30T02:07:37.999Z,805.97
2023-10-30T02:10:07.797Z,760.45
2023-10-30T02:12:38.584Z,763.85
2023-10-30T02:15:09.840Z,808.58
2023-10-30T02:17:38.357Z,770.15
2023-10-30T02:20:07.761Z,740.15
2023-10-30T02:22:36.253Z,706.60
2023-10-30T02:25:06.072Z,709.35
2023-10-30T02:27:35.947Z,722.45
2023-10-30T02:30:04.740Z,695.78
2023-10-30T02:32:33.348Z,700.97
2023-10-30T02:35:04.349Z,766.55
2023-10-30T02:37:32.829Z,795.63
2023-10-30T02:40:01.333Z,806.85
2023-10-30T02:42:29.830Z,717.08
2023-10-30T02:44:59.718Z,796.50
2023-10-30T02:47:29.736Z,723.25
2023-10-30T02:49:58.232Z,803.38
2023-10-30T02:52:26.798Z,733.83
2023-10-30T02:54:55.312Z,742.35
2023-10-30T02:57:23.796Z,727.72
2023-10-30T02:59:52.258Z,713.80
2023-10-30T03:02:22.103Z,654.08
2023-10-30T03:04:50.816Z,701.33
2023-10-30T03:07:19.735Z,706.00
2023-10-30T03:09:48.329Z,698.45
2023-10-30T03:12:17.049Z,702.55
2023-10-30T03:14:45.658Z,719.03
2023-10-30T03:17:14.193Z,657.97
2023-10-30T03:19:44.284Z,687.55
2023-10-30T03:22:12.758Z,706.72
2023-10-30T03:24:41.354Z,688.97
2023-10-30T03:27:09.872Z,656.10
2023-10-30T03:29:38.862Z,698.75
2023-10-30T03:32:07.533Z,711.70
2023-10-30T03:34:37.730Z,706.35
2023-10-30T03:37:07.644Z,647.33
2023-10-30T03:39:36.098Z,620.63
2023-10-30T03:42:04.635Z,669.38
2023-10-30T03:44:32.991Z,675.60
2023-10-30T03:47:01.494Z,606.17
2023-10-30T03:49:30.229Z,666.67
2023-10-30T03:51:58.609Z,685.30
2023-10-30T03:54:28.445Z,709.55
2023-10-30T03:56:56.841Z,695.22
2023-10-30T03:59:25.960Z,689.35
2023-10-30T04:01:55.571Z,675.95
2023-10-30T04:04:24.173Z,706.38
2023-10-30T04:06:52.772Z,636.08
2023-10-30T04:09:21.340Z,685.60
2023-10-30T04:11:51.251Z,681.63
2023-10-30T04:14:19.705Z,575.42
2023-10-30T04:16:48.438Z,597.42
2023-10-30T04:19:16.821Z,521.30
2023-10-30T04:21:45.811Z,548.13
2023-10-30T04:24:14.492Z,459.45
2023-10-30T04:26:42.975Z,552.00
2023-10-30T04:29:12.709Z,549.85
2023-10-30T04:31:41.211Z,547.40
2023-10-30T04:34:09.641Z,552.08
2023-10-30T04:36:38.055Z,557.10
2023-10-30T04:39:10.176Z,577.92
2023-10-30T04:41:38.570Z,585.97
2023-10-30T04:44:07.624Z,582.00
2023-10-30T04:46:37.487Z,542.35
2023-10-30T04:49:06.207Z,526.20
2023-10-30T04:51:35.403Z,584.63
2023-10-30T04:54:06.006Z,513.70
2023-10-30T04:56:34.461Z,550.10
2023-10-30T04:59:03.348Z,472.40
2023-10-30T05:01:32.396Z,462.90
2023-10-30T05:04:03.544Z,551.75
2023-10-30T05:06:32.084Z,500.92
2023-10-30T05:09:00.648Z,580.42
2023-10-30T05:11:29.061Z,597.75
2023-10-30T05:13:57.781Z,575.78
2023-10-30T05:16:26.250Z,509.17
2023-10-30T05:18:55.994Z,527.85
2023-10-30T05:21:25.846Z,576.58
2023-10-30T05:23:54.472Z,637.10
2023-10-30T05:26:23.273Z,600.25
2023-10-30T05:28:51.814Z,671.00
2023-10-30T05:31:20.989Z,580.80
2023-10-30T05:33:49.425Z,623.67
2023-10-30T05:36:18.073Z,591.85
2023-10-30T05:38:48.129Z,547.03
2023-10-30T05:41:16.544Z,597.75
2023-10-30T05:43:45.109Z,584.13
2023-10-30T05:46:13.670Z,583.65
2023-10-30T05:48:42.184Z,588.30
2023-10-30T05:51:10.720Z,612.28
2023-10-30T05:53:39.333Z,615.67
2023-10-30T05:56:09.778Z,592.97
2023-10-30T05:58:38.733Z,615.67
2023-10-30T06:01:08.366Z,632.80
2023-10-30T06:03:37.730Z,491.58
2023-10-30T06:06:07.261Z,580.80
2023-10-30T06:08:35.942Z,477.60
2023-10-30T06:11:04.988Z,448.45
2023-10-30T06:13:34.914Z,369.70
2023-10-30T06:16:03.603Z,462.38
2023-10-30T06:18:32.453Z,342.05
2023-10-30T06:21:02.342Z,485.00
2023-10-30T06:23:30.713Z,349.55
2023-10-30T06:25:59.242Z,510.75
2023-10-30T06:28:28.206Z,476.05
2023-10-30T06:30:58.216Z,330.90
2023-10-30T06:33:27.762Z,454.60
2023-10-30T06:36:00.072Z,378.55
2023-10-30T06:38:34.011Z,344.38
2023-10-30T06:41:03.181Z,499.20
2023-10-30T06:43:31.759Z,471.48
2023-10-30T06:46:08.614Z,507.65
2023-10-30T06:48:37.325Z,481.58
2023-10-30T06:51:07.055Z,438.40
2023-10-30T06:53:35.764Z,561.38
2023-10-30T06:56:04.624Z,557.80
2023-10-30T06:58:33.435Z,571.13
2023-10-30T07:01:07.140Z,581.47
2023-10-30T07:03:36.359Z,532.40
2023-10-30T07:06:05.446Z,464.70
2023-10-30T07:08:35.334Z,467.30
2023-10-30T07:11:04.319Z,569.60
2023-10-30T07:13:33.235Z,564.95
2023-10-30T07:16:04.261Z,590.53
2023-10-30T07:18:36.006Z,595.92
2023-10-30T07:21:04.855Z,594.17
2023-10-30T07:23:33.530Z,644.13
2023-10-30T07:26:04.390Z,583.28
2023-10-30T07:28:33.217Z,638.28
2023-10-30T07:31:02.516Z,619.17
2023-10-30T07:33:34.523Z,701.83
2023-10-30T07:36:07.277Z,721.85
2023-10-30T07:38:36.425Z,737.65
2023-10-30T07:41:05.423Z,643.05
2023-10-30T07:43:34.038Z,695.53
2023-10-30T07:46:02.670Z,711.45
2023-10-30T07:48:31.449Z,706.72
2023-10-30T07:51:05.571Z,724.60
2023-10-30T07:53:34.204Z,715.92
2023-10-30T07:56:02.786Z,705.22
2023-10-30T07:58:31.425Z,674.70
2023-10-30T08:00:59.976Z,722.65
2023-10-30T08:03:28.815Z,716.67
2023-10-30T08:06:00.830Z,729.28
2023-10-30T08:08:30.836Z,738.47
2023-10-30T08:10:59.434Z,702.65
2023-10-30T08:13:28.025Z,754.75
2023-10-30T08:15:57.304Z,803.42
2023-10-30T08:18:26.312Z,778.95
2023-10-30T08:20:59.413Z,779.85
2023-10-30T08:23:36.043Z,761.78
2023-10-30T08:26:05.092Z,765.08
2023-10-30T08:28:37.062Z,807.60
2023-10-30T08:31:08.574Z,738.22
2023-10-30T08:33:37.390Z,744.95
2023-10-30T08:36:06.706Z,733.25
2023-10-30T08:38:40.016Z,818.15
2023-10-30T08:41:23.443Z,754.63
2023-10-30T08:43:53.809Z,770.50
2023-10-30T08:46:22.778Z,755.42
2023-10-30T08:48:51.887Z,796.55
2023-10-30T08:51:20.742Z,829.78
2023-10-30T08:53:52.124Z,838.40
2023-10-30T08:56:21.288Z,916.85
2023-10-30T08:58:50.954Z,820.95
2023-10-30T09:01:19.579Z,889.33
2023-10-30T09:03:48.245Z,827.90
2023-10-30T09:06:17.320Z,822.15
2023-10-30T09:08:47.105Z,838.80
2023-10-30T09:11:16.992Z,832.17
2023-10-30T09:13:45.546Z,836.10
2023-10-30T09:16:14.073Z,828.13
2023-10-30T09:18:42.811Z,843.78
2023-10-30T09:21:11.335Z,833.13
2023-10-30T09:23:41.209Z,823.30
2023-10-30T09:26:11.317Z,855.30
2023-10-30T09:28:41.218Z,845.05
2023-10-30T09:31:09.764Z,827.97
2023-10-30T09:33:38.462Z,837.22
2023-10-30T09:36:08.194Z,831.42
2023-10-30T09:38:36.789Z,834.67
2023-10-30T09:41:06.279Z,833.08
2023-10-30T09:43:36.670Z,848.88
2023-10-30T09:46:08.086Z,817.38
2023-10-30T09:48:38.476Z,835.58
2023-10-30T09:51:09.456Z,816.35
2023-10-30T09:53:40.200Z,808.33
2023-10-30T09:56:09.473Z,785.13
2023-10-30T09:58:39.322Z,826.17
2023-10-30T10:01:09.433Z,792.92
2023-10-30T10:03:38.529Z,804.40
2023-10-30T10:06:07.652Z,802.42
2023-10-30T10:08:36.375Z,814.80
2023-10-30T10:11:07.453Z,808.38
2023-10-30T10:13:47.184Z,845.75
2023-10-30T10:16:30.247Z,815.15
2023-10-30T10:18:59.074Z,791.60
2023-10-30T10:21:27.897Z,798.03
2023-10-30T10:23:56.493Z,810.58
2023-10-30T10:26:32.060Z,826.15
2023-10-30T10:29:02.228Z,773.65
2023-10-30T10:31:32.417Z,805.05
2023-10-30T10:34:08.160Z,807.10
2023-10-30T10:36:36.769Z,807.70
2023-10-30T10:39:05.473Z,841.90
2023-10-30T10:41:34.117Z,849.70
2023-10-30T10:44:03.345Z,855.15
2023-10-30T10:46:35.243Z,882.63
2023-10-30T10:49:05.885Z,893.40
2023-10-30T10:51:37.150Z,852.22
2023-10-30T10:54:12.959Z,860.90
2023-10-30T10:56:43.015Z,869.50
2023-10-30T10:59:17.232Z,869.63
2023-10-30T11:01:50.136Z,885.78
2023-10-30T11:04:20.419Z,883.78
2023-10-30T11:06:58.227Z,943.00
2023-10-30T11:09:31.911Z,867.42
2023-10-30T11:12:08.523Z,866.22
2023-10-30T11:14:45.189Z,882.10
2023-10-30T11:17:17.530Z,893.03
2023-10-30T11:19:48.148Z,899.03
2023-10-30T11:22:41.188Z,891.38
2023-10-30T11:25:45.382Z,899.40
2023-10-30T11:28:13.950Z,889.28
2023-10-30T11:30:46.554Z,872.80
2023-10-30T11:33:23.675Z,881.40
2023-10-30T11:36:25.328Z,897.92
2023-10-30T11:39:12.282Z,892.28
2023-10-30T11:41:44.085Z,881.30
2023-10-30T11:44:13.417Z,964.20
2023-10-30T11:46:42.773Z,882.30
2023-10-30T11:49:14.287Z,926.97
2023-10-30T11:51:44.383Z,895.92
2023-10-30T11:54:13.164Z,887.47
2023-10-30T11:56:42.197Z,886.20
2023-10-30T11:59:11.771Z,924.92
2023-10-30T12:01:40.900Z,887.17
2023-10-30T12:04:09.689Z,911.83
2023-10-30T12:06:41.530Z,904.83
2023-10-30T12:09:10.106Z,892.00
2023-10-30T12:11:38.995Z,908.88
2023-10-30T12:14:07.687Z,899.17
2023-10-30T12:16:37.517Z,880.53
2023-10-30T12:19:06.422Z,892.63
2023-10-30T12:21:37.948Z,910.67
2023-10-30T12:24:07.131Z,941.47
2023-10-30T12:26:41.858Z,899.97
2023-10-30T12:29:10.503Z,882.50
2023-10-30T12:31:38.938Z,862.58
2023-10-30T12:34:12.377Z,862.70
2023-10-30T12:36:44.512Z,823.17
2023-10-30T12:39:19.085Z,847.65
2023-10-30T12:41:50.598Z,816.50
2023-10-30T12:44:20.001Z,840.17
2023-10-30T12:46:49.009Z,815.85
2023-10-30T12:49:18.685Z,787.90
2023-10-30T12:51:51.051Z,834.50
2023-10-30T12:54:19.602Z,820.65
2023-10-30T12:56:47.998Z,865.33
2023-10-30T12:59:18.759Z,817.90
2023-10-30T13:01:58.622Z,943.75
2023-10-30T13:04:29.556Z,810.95
2023-10-30T13:07:00.630Z,889.72
2023-10-30T13:09:29.545Z,834.85
2023-10-30T13:11:58.197Z,800.05
2023-10-30T13:14:26.940Z,849.15
2023-10-30T13:16:56.278Z,821.63
2023-10-30T13:19:26.417Z,900.45
2023-10-30T13:21:55.068Z,886.53
2023-10-30T13:24:25.045Z,970.78
2023-10-30T13:26:53.453Z,878.13
2023-10-30T13:29:22.082Z,892.22
2023-10-30T13:31:50.539Z,879.60
2023-10-30T13:34:19.960Z,867.45
2023-10-30T13:36:48.585Z,890.83
2023-10-30T13:39:17.223Z,976.15
2023-10-30T13:41:47.832Z,889.58
2023-10-30T13:44:18.328Z,923.08
2023-10-30T13:46:47.252Z,900.92
2023-10-30T13:49:17.848Z,904.08
2023-10-30T13:51:47.391Z,879.15
2023-10-30T13:54:16.140Z,923.90
2023-10-30T13:56:46.450Z,906.83
2023-10-30T13:59:15.170Z,915.40
2023-10-30T14:01:44.164Z,961.80
2023-10-30T14:04:13.111Z,881.70
2023-10-30T14:06:44.736Z,893.83
2023-10-30T14:09:13.827Z,862.40
2023-10-30T14:11:42.485Z,841.78
2023-10-30T14:14:27.357Z,849.10
2023-10-30T14:16:56.671Z,872.55
2023-10-30T14:19:25.963Z,874.83
2023-10-30T14:21:54.462Z,877.67
2023-10-30T14:24:24.453Z,885.15
2023-10-30T14:26:53.251Z,897.10
2023-10-30T14:29:21.917Z,922.35
2023-10-30T14:31:51.808Z,875.10
2023-10-30T14:34:20.306Z,876.35
2023-10-30T14:36:49.203Z,914.63
2023-10-30T14:39:20.217Z,840.22
2023-10-30T14:41:49.605Z,826.92
2023-10-30T14:44:17.987Z,833.17
2023-10-30T14:46:46.482Z,832.35
2023-10-30T14:49:16.726Z,827.83
2023-10-30T14:51:45.544Z,857.53
2023-10-30T14:54:14.174Z,851.88
2023-10-30T14:56:42.632Z,808.50
2023-10-30T14:59:11.120Z,810.42
2023-10-30T15:01:39.631Z,825.55
2023-10-30T15:04:08.221Z,916.72
2023-10-30T15:06:38.072Z,835.47
2023-10-30T15:09:06.769Z,810.58
2023-10-30T15:11:35.180Z,823.25
2023-10-30T15:14:03.743Z,824.45
2023-10-30T15:16:32.461Z,834.50
2023-10-30T15:19:01.256Z,852.25
2023-10-30T15:21:30.709Z,895.30
2023-10-30T15:24:00.506Z,851.92
2023-10-30T15:26:29.022Z,838.25
2023-10-30T15:28:57.547Z,849.35
2023-10-30T15:31:27.057Z,847.00
2023-10-30T15:33:57.202Z,864.05
2023-10-30T15:36:26.139Z,853.20
2023-10-30T15:38:54.527Z,871.58
2023-10-30T15:41:24.255Z,853.55
2023-10-30T15:43:52.740Z,871.30
2023-10-30T15:46:21.298Z,907.65
2023-10-30T15:48:51.057Z,830.20
2023-10-30T15:51:19.875Z,823.60
2023-10-30T15:58:47.670Z,807.78
2023-10-30T16:01:16.552Z,811.58
2023-10-30T16:03:45.188Z,757.72
2023-10-30T16:06:14.423Z,776.63
2023-10-30T16:11:30.443Z,781.13
2023-10-30T16:16:29.356Z,808.15
2023-10-30T16:21:29.941Z,742.63
2023-10-30T16:23:58.480Z,758.45
2023-10-30T16:26:27.521Z,726.83
2023-10-30T16:28:55.865Z,767.25
2023-10-30T16:31:25.975Z,744.58
2023-10-30T16:33:54.375Z,750.13
2023-10-30T16:36:22.811Z,752.17
2023-10-30T16:38:51.271Z,804.78
2023-10-30T16:41:20.785Z,858.03
2023-10-30T16:43:49.242Z,768.65
2023-10-30T16:46:17.996Z,738.45
2023-10-30T16:48:47.994Z,717.97
2023-10-30T16:51:16.556Z,717.40
2023-10-30T16:53:45.301Z,774.53
2023-10-30T16:56:13.704Z,722.72
2023-10-30T16:58:43.293Z,752.75
2023-10-30T17:01:11.929Z,779.50
2023-10-30T17:03:40.735Z,783.30
2023-10-30T17:06:10.937Z,742.63
2023-10-30T17:08:39.309Z,816.72
2023-10-30T17:11:07.790Z,795.40
2023-10-30T17:13:36.235Z,782.45
2023-10-30T17:16:05.249Z,733.20
2023-10-30T17:18:33.700Z,769.83
2023-10-30T17:21:06.457Z,715.78
2023-10-30T17:23:36.829Z,719.78
2023-10-30T17:26:06.169Z,709.55
2023-10-30T17:28:34.841Z,713.55
2023-10-30T17:31:03.372Z,660.67
2023-10-30T17:33:32.813Z,697.95
2023-10-30T17:36:01.711Z,592.95
2023-10-30T17:38:30.216Z,598.88
2023-10-30T17:41:00.035Z,524.90
2023-10-30T17:43:28.713Z,621.25
2023-10-30T17:45:57.275Z,564.80
2023-10-30T17:48:25.926Z,553.20
2023-10-30T17:50:54.387Z,580.88
2023-10-30T17:53:22.886Z,561.40
2023-10-30T17:55:51.998Z,575.88
2023-10-30T17:58:22.638Z,522.63
2023-10-30T18:00:51.132Z,549.20
2023-10-30T18:03:19.863Z,657.45
2023-10-30T18:05:48.414Z,598.70
2023-10-30T18:08:17.338Z,569.95
2023-10-30T18:10:45.865Z,594.22
2023-10-30T18:13:14.482Z,621.88
2023-10-30T18:15:44.733Z,647.55
2023-10-30T18:18:13.280Z,685.22
2023-10-30T18:20:42.906Z,583.65
2023-10-30T18:23:11.350Z,592.50
2023-10-30T18:25:40.018Z,585.47
2023-10-30T18:28:09.538Z,590.38
2023-10-30T18:30:39.102Z,620.42
2023-10-30T18:33:09.038Z,637.10
2023-10-30T18:35:40.275Z,667.83
2023-10-30T18:38:10.745Z,670.38
2023-10-30T18:40:39.286Z,585.08
2023-10-30T18:43:07.847Z,670.28
2023-10-30T18:45:36.411Z,597.50
2023-10-30T18:48:05.765Z,656.03
2023-10-30T18:50:35.726Z,708.15
2023-10-30T18:53:04.302Z,705.70
2023-10-30T18:55:33.218Z,702.40
2023-10-30T18:58:01.754Z,697.13
2023-10-30T19:00:30.235Z,653.50
2023-10-30T19:02:59.084Z,699.70
2023-10-30T19:05:27.671Z,672.80
2023-10-30T19:07:57.605Z,638.28
2023-10-30T19:10:26.509Z,657.13
2023-10-30T19:12:55.025Z,653.70
2023-10-30T19:15:23.634Z,663.35
2023-10-30T19:17:52.114Z,668.28
2023-10-30T19:20:20.664Z,608.10
2023-10-30T19:22:49.172Z,609.85
2023-10-30T19:25:20.349Z,672.95
2023-10-30T19:27:49.010Z,646.03
2023-10-30T19:30:18.345Z,569.95
2023-10-30T19:32:48.138Z,602.33
2023-10-30T19:35:16.953Z,585.13
2023-10-30T19:37:45.377Z,628.63
2023-10-30T19:40:14.889Z,617.25
2023-10-30T19:42:44.970Z,628.22
2023-10-30T19:45:13.712Z,583.88
2023-10-30T19:47:43.224Z,608.10
2023-10-30T19:50:12.326Z,608.65
2023-10-30T19:52:41.842Z,603.40
2023-10-30T19:55:10.833Z,598.97
2023-10-30T19:57:39.589Z,612.45
2023-10-30T20:00:11.767Z,552.47
2023-10-30T20:02:41.340Z,599.88
2023-10-30T20:05:11.929Z,520.35
2023-10-30T20:07:41.629Z,588.92
2023-10-30T20:10:22.302Z,586.20
2023-10-30T20:12:59.230Z,546.65
2023-10-30T20:15:29.404Z,574.75
2023-10-30T20:17:57.850Z,432.00
2023-10-30T20:20:27.000Z,545.83
2023-10-30T20:22:56.192Z,558.65
2023-10-30T20:25:25.257Z,442.88
2023-10-30T20:27:53.902Z,362.23
2023-10-30T20:30:22.785Z,520.78
2023-10-30T20:32:53.096Z,542.90
2023-10-30T20:35:21.655Z,481.33
2023-10-30T20:37:50.102Z,506.05
2023-10-30T20:40:19.090Z,578.63
2023-10-30T20:42:47.632Z,546.95
2023-10-30T20:45:16.450Z,558.67
2023-10-30T20:47:44.915Z,540.50
2023-10-30T20:50:14.950Z,584.45
2023-10-30T20:52:43.630Z,543.05
2023-10-30T20:55:12.108Z,582.60
2023-10-30T20:57:41.333Z,576.05
2023-10-30T21:00:11.475Z,582.00
2023-10-30T21:02:40.444Z,508.17
2023-10-30T21:05:09.425Z,510.70
2023-10-30T21:07:39.391Z,583.83
2023-10-30T21:10:09.495Z,601.20
2023-10-30T21:12:38.020Z,567.67
2023-10-30T21:15:08.950Z,557.42
2023-10-30T21:18:17.811Z,607.03
2023-10-30T21:20:47.821Z,584.35
2023-10-30T21:23:18.377Z,604.45
2023-10-30T21:26:11.438Z,617.13
2023-10-30T21:28:42.331Z,605.47
2023-10-30T21:35:04.231Z,621.67
2023-10-30T21:37:33.498Z,621.80
2023-10-30T21:48:01.338Z,616.22
2023-10-30T21:50:30.266Z,606.53
2023-10-30T21:53:02.230Z,575.20
2023-10-30T21:55:42.258Z,613.78
2023-10-30T21:58:20.838Z,583.20
2023-10-30T22:01:04.186Z,637.75
2023-10-30T22:04:04.419Z,615.25
2023-10-30T22:06:40.962Z,612.03
2023-10-30T22:09:15.735Z,622.60
2023-10-30T22:11:52.971Z,602.78
2023-10-30T22:14:25.089Z,615.25
2023-10-30T22:17:09.463Z,605.65
2023-10-30T22:19:46.944Z,586.83
2023-10-30T22:22:21.272Z,559.95
2023-10-30T22:25:11.373Z,551.25
2023-10-30T22:27:45.833Z,536.60
2023-10-30T22:32:50.092Z,599.00
2023-10-30T22:35:40.554Z,583.28
2023-10-30T22:38:17.940Z,635.95
2023-10-30T22:41:19.101Z,557.30
2023-10-30T22:44:06.086Z,606.05
2023-10-30T22:47:01.174Z,606.85
2023-10-30T22:49:42.407Z,625.72
2023-10-30T22:52:11.611Z,624.15
2023-10-30T22:54:44.846Z,612.42
2023-10-30T22:57:22.573Z,607.88
2023-10-30T22:59:53.461Z,597.15
2023-10-30T23:02:36.041Z,631.33
2023-10-30T23:05:29.165Z,624.42
2023-10-30T23:08:01.333Z,602.65
2023-10-30T23:10:39.350Z,568.75
2023-10-30T23:13:13.820Z,606.85
2023-10-30T23:18:36.199Z,608.15
2023-10-30T23:21:43.963Z,616.63
2023-10-30T23:24:13.757Z,620.05
2023-10-30T23:26:42.835Z,606.40
2023-10-30T23:29:12.242Z,666.55
2023-10-30T23:31:42.259Z,600.95
2023-10-30T23:34:10.732Z,535.42
2023-10-30T23:36:39.362Z,596.40
2023-10-30T23:39:08.103Z,598.97
2023-10-30T23:41:36.911Z,597.25
2023-10-30T23:44:05.993Z,606.58
2023-10-30T23:46:39.330Z,569.17
2023-10-30T23:49:11.660Z,571.83
2023-10-30T23:51:40.251Z,603.90
2023-10-30T23:54:09.513Z,600.50
2023-10-30T23:56:38.057Z,615.17
2023-10-30T23:59:06.841Z,619.45
